sensor_id;sensor_type;location;lat;lon;timestamp;pressure;altitude;pressure_sealevel;temperature;humidity
77793;BME280;66983;51.438;5.438;2023-05-18T00:02:00;102651.63;;;9.52;62.94
77793;BME280;66983;51.438;5.438;2023-05-18T00:04:26;102648.09;;;9.47;61.55
77793;BME280;66983;51.438;5.438;2023-05-18T00:06:53;102634.78;;;9.46;62.07
77793;BME280;66983;51.438;5.438;2023-05-18T00:09:26;102643.69;;;9.43;63.14
77793;BME280;66983;51.438;5.438;2023-05-18T00:11:52;102642.81;;;9.38;62.26
77793;BME280;66983;51.438;5.438;2023-05-18T00:14:18;102637.53;;;9.32;63.09
77793;BME280;66983;51.438;5.438;2023-05-18T00:16:44;102639.31;;;9.29;62.92
77793;BME280;66983;51.438;5.438;2023-05-18T00:19:10;102644.66;;;9.29;61.95
77793;BME280;66983;51.438;5.438;2023-05-18T00:21:43;102639.31;;;9.29;62.74
77793;BME280;66983;51.438;5.438;2023-05-18T00:24:10;102644.66;;;9.26;62.15
77793;BME280;66983;51.438;5.438;2023-05-18T00:26:40;102642.88;;;9.26;62.29
77793;BME280;66983;51.438;5.438;2023-05-18T00:29:07;102640.22;;;9.23;63.28
77793;BME280;66983;51.438;5.438;2023-05-18T00:31:33;102650.88;;;9.22;63.42
77793;BME280;66983;51.438;5.438;2023-05-18T00:34:11;102641.13;;;9.19;64.23
77793;BME280;66983;51.438;5.438;2023-05-18T00:36:38;102642.03;;;9.16;62.18
77793;BME280;66983;51.438;5.438;2023-05-18T00:39:05;102645.56;;;9.18;63.30
77793;BME280;66983;51.438;5.438;2023-05-18T00:41:31;102646.47;;;9.13;63.03
77793;BME280;66983;51.438;5.438;2023-05-18T00:43:59;102654.50;;;9.08;63.63
77793;BME280;66983;51.438;5.438;2023-05-18T00:46:26;102660.72;;;9.03;63.95
77793;BME280;66983;51.438;5.438;2023-05-18T00:48:54;102662.50;;;8.96;63.79
77793;BME280;66983;51.438;5.438;2023-05-18T00:51:22;102659.84;;;8.90;64.16
77793;BME280;66983;51.438;5.438;2023-05-18T00:53:52;102657.19;;;8.89;64.69
77793;BME280;66983;51.438;5.438;2023-05-18T00:56:19;102649.22;;;8.84;64.04
77793;BME280;66983;51.438;5.438;2023-05-18T00:58:49;102657.25;;;8.81;63.67
77793;BME280;66983;51.438;5.438;2023-05-18T01:01:17;102659.00;;;8.80;63.68
77793;BME280;66983;51.438;5.438;2023-05-18T01:03:43;102655.47;;;8.78;64.38
77793;BME280;66983;51.438;5.438;2023-05-18T01:06:09;102655.47;;;8.74;64.60
77793;BME280;66983;51.438;5.438;2023-05-18T01:08:39;102660.78;;;8.68;64.71
77793;BME280;66983;51.438;5.438;2023-05-18T01:14:06;102654.59;;;8.69;63.70
77793;BME280;66983;51.438;5.438;2023-05-18T01:16:44;102661.69;;;8.65;63.92
77793;BME280;66983;51.438;5.438;2023-05-18T01:19:41;102667.88;;;8.63;65.38
77793;BME280;66983;51.438;5.438;2023-05-18T01:25:33;102659.91;;;8.60;64.77
77793;BME280;66983;51.438;5.438;2023-05-18T01:28:14;102666.16;;;8.57;64.86
77793;BME280;66983;51.438;5.438;2023-05-18T01:30:42;102667.03;;;8.56;64.68
77793;BME280;66983;51.438;5.438;2023-05-18T01:33:10;102663.50;;;8.56;65.10
77793;BME280;66983;51.438;5.438;2023-05-18T01:35:37;102667.94;;;8.54;64.89
77793;BME280;66983;51.438;5.438;2023-05-18T01:38:03;102659.94;;;8.47;64.42
77793;BME280;66983;51.438;5.438;2023-05-18T01:40:36;102663.50;;;8.49;64.69
77793;BME280;66983;51.438;5.438;2023-05-18T01:43:17;102661.72;;;8.45;65.43
77793;BME280;66983;51.438;5.438;2023-05-18T01:45:47;102670.56;;;8.44;65.29
77793;BME280;66983;51.438;5.438;2023-05-18T01:48:20;102668.81;;;8.45;64.18
77793;BME280;66983;51.438;5.438;2023-05-18T01:50:51;102659.06;;;8.42;65.05
77793;BME280;66983;51.438;5.438;2023-05-18T01:53:32;102663.50;;;8.40;65.50
77793;BME280;66983;51.438;5.438;2023-05-18T01:56:06;102668.81;;;8.37;65.35
77793;BME280;66983;51.438;5.438;2023-05-18T01:58:35;102665.25;;;8.37;64.79
77793;BME280;66983;51.438;5.438;2023-05-18T02:01:03;102660.81;;;8.33;65.40
77793;BME280;66983;51.438;5.438;2023-05-18T02:03:32;102659.94;;;8.35;64.43
77793;BME280;66983;51.438;5.438;2023-05-18T02:05:58;102659.06;;;8.33;66.28
77793;BME280;66983;51.438;5.438;2023-05-18T02:08:24;102657.28;;;8.35;66.21
77793;BME280;66983;51.438;5.438;2023-05-18T02:10:50;102658.16;;;8.30;66.17
77793;BME280;66983;51.438;5.438;2023-05-18T02:13:15;102645.75;;;8.26;65.28
77793;BME280;66983;51.438;5.438;2023-05-18T02:15:41;102655.50;;;8.30;65.63
77793;BME280;66983;51.438;5.438;2023-05-18T02:18:10;102659.06;;;8.33;66.12
77793;BME280;66983;51.438;5.438;2023-05-18T02:20:36;102657.28;;;8.35;65.55
77793;BME280;66983;51.438;5.438;2023-05-18T02:23:03;102657.28;;;8.28;65.46
77793;BME280;66983;51.438;5.438;2023-05-18T02:25:28;102649.31;;;8.28;65.87
77793;BME280;66983;51.438;5.438;2023-05-18T02:27:54;102645.75;;;8.24;65.05
77793;BME280;66983;51.438;5.438;2023-05-18T02:30:20;102647.53;;;8.17;65.17
77793;BME280;66983;51.438;5.438;2023-05-18T02:32:45;102649.31;;;8.18;66.52
77793;BME280;66983;51.438;5.438;2023-05-18T02:35:11;102650.19;;;8.16;66.17
77793;BME280;66983;51.438;5.438;2023-05-18T02:37:37;102643.09;;;8.20;65.64
77793;BME280;66983;51.438;5.438;2023-05-18T02:40:12;102645.75;;;8.15;66.18
77793;BME280;66983;51.438;5.438;2023-05-18T02:42:39;102645.75;;;8.15;65.72
77793;BME280;66983;51.438;5.438;2023-05-18T02:45:05;102638.66;;;8.12;65.85
77793;BME280;66983;51.438;5.438;2023-05-18T02:47:31;102636.03;;;8.05;65.72
77793;BME280;66983;51.438;5.438;2023-05-18T02:49:57;102628.06;;;8.05;66.86
77793;BME280;66983;51.438;5.438;2023-05-18T02:52:23;102642.22;;;8.04;65.81
77793;BME280;66983;51.438;5.438;2023-05-18T02:54:49;102633.38;;;8.02;66.33
77793;BME280;66983;51.438;5.438;2023-05-18T02:57:22;102631.59;;;8.07;65.55
77793;BME280;66983;51.438;5.438;2023-05-18T03:00:01;102636.91;;;8.01;66.23
77793;BME280;66983;51.438;5.438;2023-05-18T03:02:26;102638.69;;;8.02;65.69
77793;BME280;66983;51.438;5.438;2023-05-18T03:04:52;102639.56;;;7.99;66.80
77793;BME280;66983;51.438;5.438;2023-05-18T03:07:24;102630.69;;;7.90;67.22
77793;BME280;66983;51.438;5.438;2023-05-18T03:09:52;102637.75;;;7.83;67.32
77793;BME280;66983;51.438;5.438;2023-05-18T03:12:18;102641.31;;;7.88;66.60
77793;BME280;66983;51.438;5.438;2023-05-18T03:14:44;102627.16;;;7.75;66.76
77793;BME280;66983;51.438;5.438;2023-05-18T03:17:09;102629.81;;;7.84;67.31
77793;BME280;66983;51.438;5.438;2023-05-18T03:19:35;102639.53;;;7.82;67.32
77793;BME280;66983;51.438;5.438;2023-05-18T03:22:01;102628.03;;;7.82;66.77
77793;BME280;66983;51.438;5.438;2023-05-18T03:24:28;102642.19;;;7.86;66.48
77793;BME280;66983;51.438;5.438;2023-05-18T03:26:56;102640.41;;;7.80;66.31
77793;BME280;66983;51.438;5.438;2023-05-18T03:29:23;102643.97;;;7.77;67.38
77793;BME280;66983;51.438;5.438;2023-05-18T03:31:49;102648.38;;;7.80;67.26
77793;BME280;66983;51.438;5.438;2023-05-18T03:34:15;102636.88;;;7.72;67.37
77793;BME280;66983;51.438;5.438;2023-05-18T03:36:41;102637.75;;;7.71;67.71
77793;BME280;66983;51.438;5.438;2023-05-18T03:39:08;102638.66;;;7.74;67.26
77793;BME280;66983;51.438;5.438;2023-05-18T03:41:34;102638.66;;;7.71;67.59
77793;BME280;66983;51.438;5.438;2023-05-18T03:44:01;102642.19;;;7.76;66.91
77793;BME280;66983;51.438;5.438;2023-05-18T03:46:27;102635.13;;;7.72;67.72
77793;BME280;66983;51.438;5.438;2023-05-18T03:48:52;102643.97;;;7.71;67.70
77793;BME280;66983;51.438;5.438;2023-05-18T03:51:23;102645.72;;;7.72;67.09
77793;BME280;66983;51.438;5.438;2023-05-18T03:53:48;102641.28;;;7.65;68.08
77793;BME280;66983;51.438;5.438;2023-05-18T03:56:14;102654.56;;;7.67;67.03
77793;BME280;66983;51.438;5.438;2023-05-18T03:58:40;102639.53;;;7.69;67.70
77793;BME280;66983;51.438;5.438;2023-05-18T04:01:06;102641.28;;;7.70;66.68
77793;BME280;66983;51.438;5.438;2023-05-18T04:03:32;102646.59;;;7.71;67.55
77793;BME280;66983;51.438;5.438;2023-05-18T04:05:58;102651.03;;;7.71;67.25
77793;BME280;66983;51.438;5.438;2023-05-18T04:08:24;102648.38;;;7.68;67.44
77793;BME280;66983;51.438;5.438;2023-05-18T04:10:51;102658.09;;;7.70;67.28
77793;BME280;66983;51.438;5.438;2023-05-18T04:13:17;102656.31;;;7.66;67.83
77793;BME280;66983;51.438;5.438;2023-05-18T04:15:43;102646.56;;;7.62;68.33
77793;BME280;66983;51.438;5.438;2023-05-18T04:18:09;102652.78;;;7.63;67.04
77793;BME280;66983;51.438;5.438;2023-05-18T04:20:35;102663.38;;;7.60;68.05
77793;BME280;66983;51.438;5.438;2023-05-18T04:23:02;102664.28;;;7.63;67.34
77793;BME280;66983;51.438;5.438;2023-05-18T04:25:30;102665.16;;;7.62;68.17
77793;BME280;66983;51.438;5.438;2023-05-18T04:27:56;102666.03;;;7.63;67.93
77793;BME280;66983;51.438;5.438;2023-05-18T04:30:26;102671.34;;;7.66;68.20
77793;BME280;66983;51.438;5.438;2023-05-18T04:32:51;102673.16;;;7.70;68.62
77793;BME280;66983;51.438;5.438;2023-05-18T04:35:18;102669.63;;;7.72;68.36
77793;BME280;66983;51.438;5.438;2023-05-18T04:37:44;102665.19;;;7.73;67.65
77793;BME280;66983;51.438;5.438;2023-05-18T04:40:13;102668.72;;;7.67;67.96
77793;BME280;66983;51.438;5.438;2023-05-18T04:42:42;102668.72;;;7.67;68.30
77793;BME280;66983;51.438;5.438;2023-05-18T04:45:21;102674.03;;;7.69;67.88
77793;BME280;66983;51.438;5.438;2023-05-18T04:47:48;102675.81;;;7.71;67.71
77793;BME280;66983;51.438;5.438;2023-05-18T04:50:19;102679.34;;;7.73;67.23
77793;BME280;66983;51.438;5.438;2023-05-18T04:52:47;102676.69;;;7.72;68.11
77793;BME280;66983;51.438;5.438;2023-05-18T04:55:15;102674.03;;;7.72;67.17
77793;BME280;66983;51.438;5.438;2023-05-18T04:57:44;102681.13;;;7.76;67.53
77793;BME280;66983;51.438;5.438;2023-05-18T05:00:12;102673.16;;;7.74;67.50
77793;BME280;66983;51.438;5.438;2023-05-18T05:02:38;102678.47;;;7.74;67.38
77793;BME280;66983;51.438;5.438;2023-05-18T05:05:04;102683.78;;;7.77;67.20
77793;BME280;66983;51.438;5.438;2023-05-18T05:07:29;102684.66;;;7.70;68.21
77793;BME280;66983;51.438;5.438;2023-05-18T05:09:55;102680.22;;;7.71;67.52
77793;BME280;66983;51.438;5.438;2023-05-18T05:12:21;102685.53;;;7.72;68.24
77793;BME280;66983;51.438;5.438;2023-05-18T05:14:46;102689.09;;;7.77;69.14
77793;BME280;66983;51.438;5.438;2023-05-18T05:17:12;102683.78;;;7.82;67.60
77793;BME280;66983;51.438;5.438;2023-05-18T05:19:38;102688.22;;;7.89;67.08
77793;BME280;66983;51.438;5.438;2023-05-18T05:22:04;102687.34;;;7.99;68.17
77793;BME280;66983;51.438;5.438;2023-05-18T05:24:30;102691.78;;;8.08;66.66
77793;BME280;66983;51.438;5.438;2023-05-18T05:26:55;102682.94;;;8.09;67.57
77793;BME280;66983;51.438;5.438;2023-05-18T05:29:21;102686.47;;;8.11;66.92
77793;BME280;66983;51.438;5.438;2023-05-18T05:31:47;102691.81;;;8.20;65.88
77793;BME280;66983;51.438;5.438;2023-05-18T05:34:12;102678.53;;;8.28;65.09
77793;BME280;66983;51.438;5.438;2023-05-18T05:36:38;102682.06;;;8.27;65.09
77793;BME280;66983;51.438;5.438;2023-05-18T05:39:04;102690.03;;;8.25;65.35
77793;BME280;66983;51.438;5.438;2023-05-18T05:41:30;102685.63;;;8.30;65.90
77793;BME280;66983;51.438;5.438;2023-05-18T05:43:56;102690.03;;;8.30;66.14
77793;BME280;66983;51.438;5.438;2023-05-18T05:46:23;102686.50;;;8.29;66.09
77793;BME280;66983;51.438;5.438;2023-05-18T05:48:49;102687.38;;;8.30;65.59
77793;BME280;66983;51.438;5.438;2023-05-18T05:51:15;102685.63;;;8.29;65.54
77793;BME280;66983;51.438;5.438;2023-05-18T05:53:41;102691.81;;;8.32;64.86
77793;BME280;66983;51.438;5.438;2023-05-18T05:56:08;102690.06;;;8.36;65.78
77793;BME280;66983;51.438;5.438;2023-05-18T05:58:37;102690.94;;;8.39;66.26
77793;BME280;66983;51.438;5.438;2023-05-18T06:01:03;102699.81;;;8.44;65.29
77793;BME280;66983;51.438;5.438;2023-05-18T06:03:29;102690.94;;;8.47;65.13
77793;BME280;66983;51.438;5.438;2023-05-18T06:05:58;102700.66;;;8.62;66.62
77793;BME280;66983;51.438;5.438;2023-05-18T06:08:24;102693.59;;;8.67;65.68
77793;BME280;66983;51.438;5.438;2023-05-18T06:10:51;102692.69;;;8.77;64.21
77793;BME280;66983;51.438;5.438;2023-05-18T06:13:17;102691.75;;;8.93;63.71
77793;BME280;66983;51.438;5.438;2023-05-18T06:15:54;102689.09;;;9.04;63.47
77793;BME280;66983;51.438;5.438;2023-05-18T06:18:20;102704.16;;;9.05;64.18
77793;BME280;66983;51.438;5.438;2023-05-18T06:20:47;102692.63;;;9.09;63.01
77793;BME280;66983;51.438;5.438;2023-05-18T06:23:14;102689.91;;;9.13;63.66
77793;BME280;66983;51.438;5.438;2023-05-18T06:25:52;102688.13;;;9.25;64.42
77793;BME280;66983;51.438;5.438;2023-05-18T06:28:43;102693.44;;;9.25;63.55
77793;BME280;66983;51.438;5.438;2023-05-18T06:31:33;102701.41;;;9.31;63.15
77793;BME280;66983;51.438;5.438;2023-05-18T06:34:11;102693.38;;;9.41;62.01
77793;BME280;66983;51.438;5.438;2023-05-18T06:36:36;102694.22;;;9.46;62.89
77793;BME280;66983;51.438;5.438;2023-05-18T06:39:03;102696.91;;;9.46;63.10
77793;BME280;66983;51.438;5.438;2023-05-18T06:41:30;102696.00;;;9.50;62.03
77793;BME280;66983;51.438;5.438;2023-05-18T06:43:56;102695.09;;;9.55;62.21
77793;BME280;66983;51.438;5.438;2023-05-18T06:46:32;102698.63;;;9.61;62.65
77793;BME280;66983;51.438;5.438;2023-05-18T06:49:04;102694.13;;;9.69;61.29
77793;BME280;66983;51.438;5.438;2023-05-18T06:51:30;102701.16;;;9.79;61.72
77793;BME280;66983;51.438;5.438;2023-05-18T06:53:56;102704.66;;;9.87;61.30
77793;BME280;66983;51.438;5.438;2023-05-18T06:56:22;102700.19;;;9.90;62.13
77793;BME280;66983;51.438;5.438;2023-05-18T06:58:48;102696.63;;;9.94;60.19
77793;BME280;66983;51.438;5.438;2023-05-18T07:01:14;102694.84;;;9.97;61.34
77793;BME280;66983;51.438;5.438;2023-05-18T07:03:42;102706.28;;;10.11;60.24
77793;BME280;66983;51.438;5.438;2023-05-18T07:06:08;102705.34;;;10.14;60.42
77793;BME280;66983;51.438;5.438;2023-05-18T07:08:33;102702.69;;;10.14;60.61
77793;BME280;66983;51.438;5.438;2023-05-18T07:11:02;102710.66;;;10.23;60.60
77793;BME280;66983;51.438;5.438;2023-05-18T07:13:27;102709.66;;;10.39;60.01
77793;BME280;66983;51.438;5.438;2023-05-18T07:15:53;102709.53;;;10.53;60.19
77793;BME280;66983;51.438;5.438;2023-05-18T07:18:19;102719.28;;;10.56;59.98
77793;BME280;66983;51.438;5.438;2023-05-18T07:20:44;102719.28;;;10.59;59.33
77793;BME280;66983;51.438;5.438;2023-05-18T07:23:10;102722.81;;;10.61;59.71
77793;BME280;66983;51.438;5.438;2023-05-18T07:25:35;102721.03;;;10.63;58.62
77793;BME280;66983;51.438;5.438;2023-05-18T07:28:01;102717.34;;;10.74;59.06
77793;BME280;66983;51.438;5.438;2023-05-18T07:30:26;102716.38;;;10.81;59.75
77793;BME280;66983;51.438;5.438;2023-05-18T07:32:52;102719.03;;;10.83;59.07
77793;BME280;66983;51.438;5.438;2023-05-18T07:35:18;102723.44;;;10.88;58.18
77793;BME280;66983;51.438;5.438;2023-05-18T07:37:44;102727.00;;;10.87;57.90
77793;BME280;66983;51.438;5.438;2023-05-18T07:40:10;102721.56;;;10.97;58.74
77793;BME280;66983;51.438;5.438;2023-05-18T07:42:40;102724.13;;;11.06;58.47
77793;BME280;66983;51.438;5.438;2023-05-18T07:45:06;102725.00;;;11.08;57.79
77793;BME280;66983;51.438;5.438;2023-05-18T07:47:32;102735.75;;;11.00;57.48
77793;BME280;66983;51.438;5.438;2023-05-18T07:49:58;102728.59;;;11.04;57.90
77793;BME280;66983;51.438;5.438;2023-05-18T07:52:24;102729.47;;;11.04;58.06
77793;BME280;66983;51.438;5.438;2023-05-18T07:54:49;102735.69;;;11.08;57.84
77793;BME280;66983;51.438;5.438;2023-05-18T07:57:15;102732.94;;;11.14;58.15
77793;BME280;66983;51.438;5.438;2023-05-18T07:59:41;102739.06;;;11.22;58.12
77793;BME280;66983;51.438;5.438;2023-05-18T08:02:07;102735.41;;;11.31;57.27
77793;BME280;66983;51.438;5.438;2023-05-18T08:04:32;102737.91;;;11.44;57.37
77793;BME280;66983;51.438;5.438;2023-05-18T08:06:58;102726.28;;;11.48;56.52
77793;BME280;66983;51.438;5.438;2023-05-18T08:09:26;102738.72;;;11.51;56.49
77793;BME280;66983;51.438;5.438;2023-05-18T08:11:52;102733.34;;;11.55;57.31
77793;BME280;66983;51.438;5.438;2023-05-18T08:14:18;102740.41;;;11.61;55.95
77793;BME280;66983;51.438;5.438;2023-05-18T08:16:43;102732.31;;;11.66;56.49
77793;BME280;66983;51.438;5.438;2023-05-18T08:19:09;102726.84;;;11.76;56.47
77793;BME280;66983;51.438;5.438;2023-05-18T08:21:35;102733.84;;;11.86;57.11
77793;BME280;66983;51.438;5.438;2023-05-18T08:24:02;102739.00;;;11.99;55.18
77793;BME280;66983;51.438;5.438;2023-05-18T08:26:28;102728.09;;;12.14;55.98
77793;BME280;66983;51.438;5.438;2023-05-18T08:28:54;102739.53;;;12.23;55.43
77793;BME280;66983;51.438;5.438;2023-05-18T08:31:19;102725.13;;;12.32;55.43
77793;BME280;66983;51.438;5.438;2023-05-18T08:33:46;102722.41;;;12.35;54.71
77793;BME280;66983;51.438;5.438;2023-05-18T08:36:11;102711.97;;;12.20;54.29
77793;BME280;66983;51.438;5.438;2023-05-18T08:38:37;102714.44;;;12.32;56.00
77793;BME280;66983;51.438;5.438;2023-05-18T08:41:18;102722.06;;;12.56;53.26
77793;BME280;66983;51.438;5.438;2023-05-18T08:43:53;102716.50;;;12.69;53.57
77793;BME280;66983;51.438;5.438;2023-05-18T08:46:30;102706.44;;;12.83;51.62
77793;BME280;66983;51.438;5.438;2023-05-18T08:48:59;102709.16;;;12.80;53.29
77793;BME280;66983;51.438;5.438;2023-05-18T08:51:28;102710.88;;;12.84;53.80
77793;BME280;66983;51.438;5.438;2023-05-18T08:53:57;102704.44;;;12.94;51.34
77793;BME280;66983;51.438;5.438;2023-05-18T08:56:24;102703.47;;;12.98;50.52
77793;BME280;66983;51.438;5.438;2023-05-18T08:58:55;102703.41;;;13.01;51.23
77793;BME280;66983;51.438;5.438;2023-05-18T09:01:23;102697.22;;;12.99;48.90
77793;BME280;66983;51.438;5.438;2023-05-18T09:03:53;102704.28;;;13.02;50.41
77793;BME280;66983;51.438;5.438;2023-05-18T09:06:22;102700.81;;;12.98;50.85
77793;BME280;66983;51.438;5.438;2023-05-18T09:08:51;102698.34;;;12.86;51.05
77793;BME280;66983;51.438;5.438;2023-05-18T09:11:18;102701.97;;;12.82;52.11
77793;BME280;66983;51.438;5.438;2023-05-18T09:13:45;102704.78;;;12.74;49.91
77793;BME280;66983;51.438;5.438;2023-05-18T09:16:11;102696.97;;;12.64;50.27
77793;BME280;66983;51.438;5.438;2023-05-18T09:18:36;102696.81;;;12.73;51.47
77793;BME280;66983;51.438;5.438;2023-05-18T09:21:02;102702.09;;;12.76;50.80
77793;BME280;66983;51.438;5.438;2023-05-18T09:23:28;102705.66;;;12.75;50.01
77793;BME280;66983;51.438;5.438;2023-05-18T09:25:54;102706.63;;;12.72;50.47
77793;BME280;66983;51.438;5.438;2023-05-18T09:28:30;102691.47;;;12.73;50.38
77793;BME280;66983;51.438;5.438;2023-05-18T09:30:57;102693.28;;;12.71;49.56
77793;BME280;66983;51.438;5.438;2023-05-18T09:33:23;102700.31;;;12.75;51.36
77793;BME280;66983;51.438;5.438;2023-05-18T09:35:50;102694.75;;;12.87;49.87
77793;BME280;66983;51.438;5.438;2023-05-18T09:38:19;102702.66;;;12.95;49.00
77793;BME280;66983;51.438;5.438;2023-05-18T09:40:48;102700.69;;;13.03;49.89
77793;BME280;66983;51.438;5.438;2023-05-18T09:43:16;102696.03;;;13.15;49.27
77793;BME280;66983;51.438;5.438;2023-05-18T09:45:45;102687.28;;;13.04;48.45
77793;BME280;66983;51.438;5.438;2023-05-18T09:48:13;102696.09;;;13.09;50.23
77793;BME280;66983;51.438;5.438;2023-05-18T09:50:38;102682.28;;;13.32;51.19
77793;BME280;66983;51.438;5.438;2023-05-18T09:53:08;102676.94;;;13.32;48.65
77793;BME280;66983;51.438;5.438;2023-05-18T09:55:47;102685.66;;;13.42;49.03
77793;BME280;66983;51.438;5.438;2023-05-18T09:58:13;102678.28;;;13.51;47.64
77793;BME280;66983;51.438;5.438;2023-05-18T10:00:45;102683.56;;;13.56;49.15
77793;BME280;66983;51.438;5.438;2023-05-18T10:03:23;102670.31;;;13.50;48.69
77793;BME280;66983;51.438;5.438;2023-05-18T10:05:50;102673.97;;;13.46;49.19
77793;BME280;66983;51.438;5.438;2023-05-18T10:08:16;102671.41;;;13.40;47.31
77793;BME280;66983;51.438;5.438;2023-05-18T10:10:47;102666.19;;;13.34;48.13
77793;BME280;66983;51.438;5.438;2023-05-18T10:13:16;102659.84;;;13.38;46.60
77793;BME280;66983;51.438;5.438;2023-05-18T10:15:50;102669.13;;;13.63;48.80
77793;BME280;66983;51.438;5.438;2023-05-18T10:18:21;102663.47;;;13.77;46.49
77793;BME280;66983;51.438;5.438;2023-05-18T10:20:49;102665.03;;;13.85;47.59
77793;BME280;66983;51.438;5.438;2023-05-18T10:23:19;102662.34;;;13.85;46.84
77793;BME280;66983;51.438;5.438;2023-05-18T10:25:47;102661.22;;;13.96;45.47
77793;BME280;66983;51.438;5.438;2023-05-18T10:28:22;102665.66;;;13.97;46.15
77793;BME280;66983;51.438;5.438;2023-05-18T10:30:56;102653.31;;;13.89;47.53
77793;BME280;66983;51.438;5.438;2023-05-18T10:33:27;102666.44;;;14.02;46.07
77793;BME280;66983;51.438;5.438;2023-05-18T10:35:55;102651.97;;;14.07;46.08
77793;BME280;66983;51.438;5.438;2023-05-18T10:38:23;102656.50;;;14.05;45.30
77793;BME280;66983;51.438;5.438;2023-05-18T10:40:51;102660.94;;;14.06;45.84
77793;BME280;66983;51.438;5.438;2023-05-18T10:43:19;102654.69;;;14.06;44.20
77793;BME280;66983;51.438;5.438;2023-05-18T10:45:55;102647.31;;;14.15;45.85
77793;BME280;66983;51.438;5.438;2023-05-18T10:48:22;102644.53;;;14.20;44.74
77793;BME280;66983;51.438;5.438;2023-05-18T10:50:50;102642.66;;;14.23;45.84
77793;BME280;66983;51.438;5.438;2023-05-18T10:53:17;102648.03;;;14.23;45.32
77793;BME280;66983;51.438;5.438;2023-05-18T10:55:44;102645.44;;;14.19;45.26
77793;BME280;66983;51.438;5.438;2023-05-18T10:58:12;102642.97;;;14.10;45.18
77793;BME280;66983;51.438;5.438;2023-05-18T11:00:43;102644.53;;;14.20;45.77
77793;BME280;66983;51.438;5.438;2023-05-18T11:03:13;102643.28;;;14.33;45.26
77793;BME280;66983;51.438;5.438;2023-05-18T11:05:40;102645.22;;;14.28;45.32
77793;BME280;66983;51.438;5.438;2023-05-18T11:08:06;102645.97;;;14.33;45.73
77793;BME280;66983;51.438;5.438;2023-05-18T11:13:06;102646.94;;;14.31;44.91
77793;BME280;66983;51.438;5.438;2023-05-18T11:18:15;102630.78;;;14.32;47.81
77793;BME280;66983;51.438;5.438;2023-05-18T11:20:44;102633.78;;;14.55;46.03
77793;BME280;66983;51.438;5.438;2023-05-18T11:23:10;102632.22;;;14.48;46.07
77793;BME280;66983;51.438;5.438;2023-05-18T11:25:36;102634.16;;;14.42;44.93
77793;BME280;66983;51.438;5.438;2023-05-18T11:28:09;102632.59;;;14.32;44.98
77793;BME280;66983;51.438;5.438;2023-05-18T11:33:11;102630.72;;;14.35;46.68
77793;BME280;66983;51.438;5.438;2023-05-18T11:36:04;102625.34;;;14.35;46.62
77793;BME280;66983;51.438;5.438;2023-05-18T11:38:53;102621.81;;;14.33;46.02
77793;BME280;66983;51.438;5.438;2023-05-18T11:44:14;102621.41;;;14.51;45.98
77793;BME280;66983;51.438;5.438;2023-05-18T11:49:42;102613.31;;;14.53;44.42
77793;BME280;66983;51.438;5.438;2023-05-18T11:54:39;102607.66;;;14.62;44.68
77793;BME280;66983;51.438;5.438;2023-05-18T11:57:07;102599.66;;;14.60;46.41
77793;BME280;66983;51.438;5.438;2023-05-18T11:59:37;102598.69;;;14.63;45.63
77793;BME280;66983;51.438;5.438;2023-05-18T12:02:03;102600.47;;;14.64;45.10
77793;BME280;66983;51.438;5.438;2023-05-18T12:04:29;102600.13;;;14.76;45.34
77793;BME280;66983;51.438;5.438;2023-05-18T12:06:56;102595.44;;;14.83;45.37
77793;BME280;66983;51.438;5.438;2023-05-18T12:09:23;102592.13;;;14.75;44.90
77793;BME280;66983;51.438;5.438;2023-05-18T12:11:50;102593.03;;;14.74;44.29
77793;BME280;66983;51.438;5.438;2023-05-18T12:14:19;102586.47;;;14.84;43.91
77793;BME280;66983;51.438;5.438;2023-05-18T12:16:47;102588.94;;;14.91;45.11
77793;BME280;66983;51.438;5.438;2023-05-18T12:19:14;102592.16;;;15.04;44.75
77793;BME280;66983;51.438;5.438;2023-05-18T12:21:39;102594.47;;;15.16;45.48
77793;BME280;66983;51.438;5.438;2023-05-18T12:24:05;102584.56;;;15.18;44.22
77793;BME280;66983;51.438;5.438;2023-05-18T12:26:31;102590.50;;;15.30;43.55
77793;BME280;66983;51.438;5.438;2023-05-18T12:28:59;102598.56;;;15.30;44.30
77793;BME280;66983;51.438;5.438;2023-05-18T12:31:25;102582.03;;;15.42;44.85
77793;BME280;66983;51.438;5.438;2023-05-18T12:33:52;102581.94;;;15.45;43.93
77793;BME280;66983;51.438;5.438;2023-05-18T12:36:20;102589.53;;;15.60;44.79
77793;BME280;66983;51.438;5.438;2023-05-18T12:38:51;102589.31;;;15.68;45.12
77793;BME280;66983;51.438;5.438;2023-05-18T12:41:24;102589.44;;;15.63;43.24
77793;BME280;66983;51.438;5.438;2023-05-18T12:43:51;102591.13;;;15.67;43.14
77793;BME280;66983;51.438;5.438;2023-05-18T12:46:22;102583.94;;;15.68;43.28
77793;BME280;66983;51.438;5.438;2023-05-18T12:48:56;102583.00;;;15.69;42.04
77793;BME280;66983;51.438;5.438;2023-05-18T12:51:23;102583.38;;;15.58;41.95
77793;BME280;66983;51.438;5.438;2023-05-18T12:53:49;102577.88;;;15.61;43.25
77793;BME280;66983;51.438;5.438;2023-05-18T12:56:15;102590.50;;;15.85;43.71
77793;BME280;66983;51.438;5.438;2023-05-18T12:58:54;102579.84;;;15.84;42.94
77793;BME280;66983;51.438;5.438;2023-05-18T13:01:20;102592.69;;;15.74;42.68
77793;BME280;66983;51.438;5.438;2023-05-18T13:03:45;102577.50;;;15.44;42.67
77793;BME280;66983;51.438;5.438;2023-05-18T13:06:11;102572.66;;;15.56;44.36
77793;BME280;66983;51.438;5.438;2023-05-18T13:08:37;102566.63;;;15.76;43.36
77793;BME280;66983;51.438;5.438;2023-05-18T13:11:03;102567.50;;;15.77;43.07
77793;BME280;66983;51.438;5.438;2023-05-18T13:13:29;102570.75;;;15.86;41.95
77793;BME280;66983;51.438;5.438;2023-05-18T13:15:55;102565.28;;;15.89;42.46
77793;BME280;66983;51.438;5.438;2023-05-18T13:18:25;102573.44;;;15.86;41.52
77793;BME280;66983;51.438;5.438;2023-05-18T13:20:53;102556.63;;;15.81;42.04
77793;BME280;66983;51.438;5.438;2023-05-18T13:23:25;102558.25;;;15.85;42.20